createdAt,value
2019-06-26T00:01:04.104Z,23.20
2019-06-26T00:03:32.198Z,23.10
2019-06-26T00:06:00.255Z,23.10
2019-06-26T00:08:28.322Z,23.00
2019-06-26T00:10:56.381Z,23.00
2019-06-26T00:13:26.847Z,22.70
2019-06-26T00:15:54.156Z,22.50
2019-06-26T00:18:22.976Z,22.50
2019-06-26T00:20:51.020Z,22.50
2019-06-26T00:23:19.918Z,22.50
2019-06-26T00:25:47.986Z,22.50
2019-06-26T00:28:16.835Z,22.50
2019-06-26T00:30:45.584Z,22.40
2019-06-26T00:33:14.455Z,22.30
2019-06-26T00:35:43.329Z,22.10
2019-06-26T00:38:12.130Z,22.00
2019-06-26T00:40:40.189Z,22.00
2019-06-26T00:43:09.021Z,21.90
2019-06-26T00:45:37.051Z,21.90
2019-06-26T00:48:05.841Z,22.10
2019-06-26T00:50:33.867Z,22.10
2019-06-26T00:53:03.447Z,22.30
2019-06-26T00:55:31.463Z,22.20
2019-06-26T00:58:00.303Z,22.10
2019-06-26T01:00:29.301Z,22.10
2019-06-26T01:02:57.345Z,22.00
2019-06-26T01:05:25.370Z,22.00
2019-06-26T01:07:53.508Z,22.10
2019-06-26T01:10:21.518Z,22.10
2019-06-26T01:12:49.572Z,22.00
2019-06-26T01:15:17.606Z,21.90
2019-06-26T01:17:45.664Z,21.90
2019-06-26T01:20:13.950Z,21.70
2019-06-26T01:22:42.006Z,21.70
2019-06-26T01:25:10.066Z,21.70
2019-06-26T01:27:38.965Z,21.70
2019-06-26T01:30:07.031Z,21.70
2019-06-26T01:32:35.833Z,21.70
2019-06-26T01:35:05.635Z,21.70
2019-06-26T01:37:33.662Z,21.70
2019-06-26T01:40:03.210Z,21.70
2019-06-26T01:42:31.275Z,21.70
2019-06-26T01:44:59.354Z,21.50
2019-06-26T01:47:27.442Z,21.40
2019-06-26T01:49:55.507Z,21.40
2019-06-26T01:52:23.536Z,21.30
2019-06-26T01:54:52.355Z,21.40
2019-06-26T01:57:20.425Z,21.40
2019-06-26T01:59:48.458Z,21.50
2019-06-26T02:02:16.564Z,21.30
2019-06-26T02:04:44.568Z,21.30
2019-06-26T02:07:12.706Z,21.30
2019-06-26T02:09:40.828Z,21.20
2019-06-26T02:12:09.587Z,21.20
2019-06-26T02:14:37.724Z,21.10
2019-06-26T02:17:06.539Z,21.00
2019-06-26T02:19:34.615Z,21.00
2019-06-26T02:22:02.657Z,21.00
2019-06-26T02:24:30.742Z,21.00
2019-06-26T02:26:58.796Z,21.00
2019-06-26T02:29:26.868Z,21.00
2019-06-26T02:31:54.941Z,20.90
2019-06-26T02:34:22.996Z,20.70
2019-06-26T02:36:51.795Z,20.70
2019-06-26T02:39:19.801Z,20.70
2019-06-26T02:41:47.857Z,20.70
2019-06-26T02:44:15.943Z,20.80
2019-06-26T02:46:44.111Z,20.90
2019-06-26T02:49:12.159Z,21.20
2019-06-26T02:51:40.271Z,21.10
2019-06-26T02:54:08.310Z,20.90
2019-06-26T02:56:36.356Z,20.80
2019-06-26T02:59:04.406Z,20.80
2019-06-26T03:01:33.263Z,20.90
2019-06-26T03:04:01.293Z,20.90
2019-06-26T03:06:29.371Z,21.00
2019-06-26T03:08:58.176Z,20.70
2019-06-26T03:11:27.021Z,20.90
2019-06-26T03:13:55.038Z,20.80
2019-06-26T03:16:23.185Z,20.90
2019-06-26T03:18:51.262Z,21.00
2019-06-26T03:21:19.305Z,20.90
2019-06-26T03:23:47.317Z,20.70
2019-06-26T03:26:15.474Z,20.70
2019-06-26T03:28:43.550Z,20.70
2019-06-26T03:31:11.602Z,20.60
2019-06-26T03:33:39.617Z,20.60
2019-06-26T03:36:07.669Z,20.50
2019-06-26T03:38:35.709Z,20.60
2019-06-26T03:41:03.798Z,20.70
2019-06-26T03:43:35.428Z,20.70
2019-06-26T03:46:00.602Z,20.70
2019-06-26T03:48:28.722Z,20.70
2019-06-26T03:50:56.785Z,20.70
2019-06-26T03:53:24.828Z,20.80
2019-06-26T03:55:53.643Z,20.90
2019-06-26T03:58:21.741Z,20.80
2019-06-26T04:00:49.878Z,21.00
2019-06-26T04:03:17.921Z,21.00
2019-06-26T04:05:46.793Z,20.90
2019-06-26T04:08:14.825Z,20.90
2019-06-26T04:10:43.589Z,20.80
2019-06-26T04:13:11.012Z,20.80
2019-06-26T04:15:42.495Z,20.90
2019-06-26T04:18:07.246Z,21.00
2019-06-26T04:20:35.365Z,21.10
2019-06-26T04:23:03.443Z,21.30
2019-06-26T04:25:32.831Z,21.50
2019-06-26T04:28:01.797Z,21.60
2019-06-26T04:30:29.717Z,21.50
2019-06-26T04:32:58.625Z,21.60
2019-06-26T04:35:26.711Z,21.60
2019-06-26T04:37:54.834Z,21.70
2019-06-26T04:40:22.900Z,21.70
2019-06-26T04:42:51.763Z,21.90
2019-06-26T04:45:19.806Z,22.10
2019-06-26T04:47:47.895Z,22.10
2019-06-26T04:50:15.957Z,22.30
2019-06-26T04:52:44.100Z,22.40
2019-06-26T04:55:12.872Z,22.70
2019-06-26T04:57:41.749Z,22.70
2019-06-26T05:00:09.756Z,22.60
2019-06-26T05:02:37.907Z,23.00
2019-06-26T05:05:05.943Z,23.20
2019-06-26T05:07:34.753Z,23.50
2019-06-26T05:10:02.822Z,23.50
2019-06-26T05:12:30.864Z,24.10
2019-06-26T05:14:58.984Z,25.40
2019-06-26T05:17:27.129Z,25.90
2019-06-26T05:19:55.173Z,25.60
2019-06-26T05:22:23.309Z,25.10
2019-06-26T05:24:51.344Z,25.40
2019-06-26T05:27:19.525Z,26.20
2019-06-26T05:29:47.597Z,28.30
2019-06-26T05:32:15.632Z,29.50
2019-06-26T05:34:43.664Z,30.50
2019-06-26T05:37:11.728Z,30.90
2019-06-26T05:39:39.744Z,31.40
2019-06-26T05:42:08.549Z,31.00
2019-06-26T05:44:37.349Z,31.40
2019-06-26T05:47:07.147Z,31.40
2019-06-26T05:49:33.508Z,31.20
2019-06-26T05:52:02.259Z,31.50
2019-06-26T05:54:30.443Z,31.90
2019-06-26T05:56:58.491Z,31.90
2019-06-26T05:59:26.593Z,32.10
2019-06-26T06:01:54.613Z,32.10
2019-06-26T06:04:22.644Z,32.50
2019-06-26T06:06:50.687Z,32.80
2019-06-26T06:09:19.594Z,33.20
2019-06-26T06:11:48.008Z,33.20
2019-06-26T06:14:16.018Z,33.60
2019-06-26T06:16:47.841Z,33.70
2019-06-26T06:19:12.859Z,33.60
2019-06-26T06:21:40.965Z,33.50
2019-06-26T06:24:09.522Z,33.00
2019-06-26T06:26:38.316Z,34.00
2019-06-26T06:29:06.257Z,34.40
2019-06-26T06:31:34.256Z,33.90
2019-06-26T06:34:03.204Z,34.30
2019-06-26T06:36:31.124Z,34.30
2019-06-26T06:38:59.833Z,34.90
2019-06-26T06:41:27.860Z,34.70
2019-06-26T06:43:57.598Z,35.40
2019-06-26T06:46:25.642Z,35.40
2019-06-26T06:48:53.703Z,35.30
2019-06-26T06:51:21.852Z,35.60
2019-06-26T06:53:49.852Z,36.10
2019-06-26T06:56:18.799Z,35.40
2019-06-26T06:58:47.652Z,35.90
2019-06-26T07:01:15.713Z,35.80
2019-06-26T07:03:43.733Z,36.30
2019-06-26T07:06:11.864Z,37.00
2019-06-26T07:08:39.892Z,37.10
2019-06-26T07:11:09.475Z,37.70
2019-06-26T07:13:37.497Z,37.70
2019-06-26T07:16:06.297Z,37.50
2019-06-26T07:18:34.326Z,37.50
2019-06-26T07:21:02.545Z,37.80
2019-06-26T07:23:30.555Z,37.70
2019-06-26T07:25:58.683Z,38.00
2019-06-26T07:28:26.747Z,38.00
2019-06-26T07:30:55.655Z,38.00
2019-06-26T07:33:23.719Z,37.90
2019-06-26T07:35:52.606Z,38.90
2019-06-26T07:38:21.481Z,39.10
2019-06-26T07:40:51.330Z,39.60
2019-06-26T07:43:19.454Z,39.60
2019-06-26T07:45:47.542Z,39.60
2019-06-26T07:48:15.636Z,39.80
2019-06-26T07:50:43.672Z,39.70
2019-06-26T07:53:12.689Z,39.40
2019-06-26T07:55:40.786Z,39.30
2019-06-26T07:58:08.797Z,39.20
2019-06-26T08:00:36.910Z,39.30
2019-06-26T08:03:05.441Z,39.10
2019-06-26T08:05:33.536Z,39.40
2019-06-26T08:08:02.502Z,39.30
2019-06-26T08:10:31.317Z,39.60
2019-06-26T08:12:59.380Z,39.60
2019-06-26T08:15:28.277Z,39.80
2019-06-26T08:18:00.904Z,39.50
2019-06-26T08:20:25.216Z,39.40
2019-06-26T08:22:53.238Z,39.00
2019-06-26T08:25:21.278Z,39.50
2019-06-26T08:27:50.160Z,38.50
2019-06-26T08:30:18.292Z,38.50
2019-06-26T08:32:47.052Z,38.80
2019-06-26T08:35:15.067Z,38.80
2019-06-26T08:37:43.174Z,39.30
2019-06-26T08:40:11.213Z,39.60
2019-06-26T08:42:39.351Z,39.40
2019-06-26T08:45:08.473Z,38.80
2019-06-26T08:47:36.476Z,38.70
2019-06-26T08:50:05.364Z,38.30
2019-06-26T08:52:33.428Z,38.30
2019-06-26T08:55:02.222Z,37.80
2019-06-26T08:57:30.300Z,37.80
2019-06-26T08:59:58.350Z,37.80
2019-06-26T09:02:27.158Z,38.60
2019-06-26T09:04:55.233Z,38.50
2019-06-26T09:07:23.293Z,38.90
2019-06-26T09:09:52.121Z,39.40
2019-06-26T09:12:20.208Z,39.30
2019-06-26T09:14:48.221Z,39.10
2019-06-26T09:17:17.013Z,38.70
2019-06-26T09:19:45.182Z,38.70
2019-06-26T09:22:14.069Z,39.30
2019-06-26T09:24:42.156Z,39.30
2019-06-26T09:27:10.206Z,39.20
2019-06-26T09:29:39.007Z,39.40
2019-06-26T09:32:07.180Z,39.40
2019-06-26T09:34:36.075Z,39.30
2019-06-26T09:37:04.901Z,39.20
2019-06-26T09:39:33.752Z,39.20
2019-06-26T09:42:01.990Z,39.30
2019-06-26T09:44:30.829Z,38.70
2019-06-26T09:46:58.879Z,38.70
2019-06-26T09:49:26.918Z,38.90
2019-06-26T09:51:55.012Z,38.70
2019-06-26T09:54:23.828Z,38.10
2019-06-26T09:56:51.835Z,38.00
2019-06-26T09:59:19.915Z,37.60
2019-06-26T10:01:47.997Z,36.80
2019-06-26T10:04:16.815Z,37.00
2019-06-26T10:06:45.597Z,36.90
2019-06-26T10:09:13.677Z,36.90
2019-06-26T10:11:41.712Z,37.40
2019-06-26T10:14:09.920Z,37.80
2019-06-26T10:16:38.688Z,37.70
2019-06-26T10:19:10.635Z,37.70
2019-06-26T10:21:35.569Z,37.20
2019-06-26T10:24:03.734Z,37.10
2019-06-26T10:26:32.667Z,37.10
2019-06-26T10:29:00.626Z,37.80
2019-06-26T10:31:28.741Z,37.80
2019-06-26T10:33:56.829Z,38.00
2019-06-26T10:36:25.569Z,38.20
2019-06-26T10:38:54.441Z,38.50
2019-06-26T10:41:22.569Z,38.40
2019-06-26T10:43:51.368Z,38.10
2019-06-26T10:46:19.432Z,38.00
2019-06-26T10:48:48.833Z,38.10
2019-06-26T10:51:17.660Z,37.80
2019-06-26T10:53:45.788Z,37.80
2019-06-26T10:56:14.601Z,37.20
2019-06-26T10:58:43.437Z,37.30
2019-06-26T11:01:11.437Z,37.20
2019-06-26T11:03:39.581Z,37.40
2019-06-26T11:06:07.612Z,37.60
2019-06-26T11:08:35.613Z,37.90
2019-06-26T11:11:03.726Z,37.60
2019-06-26T11:13:31.758Z,37.50
2019-06-26T11:15:59.804Z,37.00
2019-06-26T11:18:27.809Z,36.90
2019-06-26T11:20:56.604Z,37.00
2019-06-26T11:23:24.688Z,36.90
2019-06-26T11:25:53.565Z,37.20
2019-06-26T11:28:22.464Z,37.60
2019-06-26T11:30:51.471Z,37.50
2019-06-26T11:33:19.464Z,37.50
2019-06-26T11:35:47.592Z,37.30
2019-06-26T11:38:16.555Z,37.50
2019-06-26T11:40:44.573Z,37.50
2019-06-26T11:43:13.378Z,37.30
2019-06-26T11:45:41.429Z,37.30
2019-06-26T11:48:09.584Z,37.40
2019-06-26T11:50:38.409Z,37.70
2019-06-26T11:53:06.450Z,37.70
2019-06-26T11:55:35.346Z,37.40
2019-06-26T11:58:04.117Z,37.30
2019-06-26T12:00:32.930Z,37.20
2019-06-26T12:03:01.812Z,36.90
2019-06-26T12:05:29.850Z,36.80
2019-06-26T12:07:58.006Z,36.60
2019-06-26T12:10:26.953Z,37.20
2019-06-26T12:12:55.897Z,36.80
2019-06-26T12:15:24.709Z,36.90
2019-06-26T12:17:53.500Z,37.10
2019-06-26T12:20:21.563Z,37.00
2019-06-26T12:22:50.370Z,36.70
2019-06-26T12:25:19.244Z,36.70
2019-06-26T12:27:48.037Z,37.20
2019-06-26T12:30:16.073Z,37.20
2019-06-26T12:33:01.128Z,37.40
2019-06-26T12:35:12.150Z,37.20
2019-06-26T12:37:40.252Z,37.10
2019-06-26T12:40:08.320Z,37.10
2019-06-26T12:42:37.173Z,37.40
2019-06-26T12:45:05.982Z,37.50
2019-06-26T12:47:34.034Z,37.50
2019-06-26T12:50:02.541Z,37.20
2019-06-26T12:52:30.310Z,37.00
2019-06-26T12:54:58.444Z,36.80
2019-06-26T12:57:27.348Z,36.70
2019-06-26T12:59:57.653Z,36.70
2019-06-26T13:02:24.300Z,36.60
2019-06-26T13:04:52.351Z,36.60
2019-06-26T13:07:21.568Z,36.90
2019-06-26T13:09:49.732Z,36.90
2019-06-26T13:12:17.904Z,36.80
2019-06-26T13:14:45.976Z,36.50
2019-06-26T13:17:14.089Z,36.20
2019-06-26T13:19:42.194Z,36.50
2019-06-26T13:22:10.179Z,36.30
2019-06-26T13:24:39.062Z,36.00
2019-06-26T13:27:07.197Z,36.00
2019-06-26T13:29:35.237Z,36.00
2019-06-26T13:32:03.302Z,35.80
2019-06-26T13:34:31.390Z,36.10
2019-06-26T13:37:00.162Z,36.00
2019-06-26T13:39:28.274Z,36.00
2019-06-26T13:41:56.329Z,35.80
2019-06-26T13:44:24.419Z,35.70
2019-06-26T13:46:52.575Z,35.80
2019-06-26T13:49:20.613Z,35.80
2019-06-26T13:51:48.699Z,36.00
2019-06-26T13:54:16.775Z,36.10
2019-06-26T13:56:44.829Z,35.90
2019-06-26T13:59:12.937Z,36.00
2019-06-26T14:01:40.975Z,35.80
2019-06-26T14:04:09.043Z,35.80
2019-06-26T14:06:37.104Z,35.50
2019-06-26T14:09:05.157Z,35.30
2019-06-26T14:11:34.094Z,35.20
2019-06-26T14:14:04.272Z,35.20
2019-06-26T14:16:33.436Z,35.50
2019-06-26T14:19:05.580Z,35.60
2019-06-26T14:21:34.413Z,35.60
2019-06-26T14:24:03.361Z,35.70
2019-06-26T14:26:31.402Z,35.60
2019-06-26T14:28:59.442Z,35.60
2019-06-26T14:31:27.543Z,35.70
2019-06-26T14:33:55.647Z,35.70
2019-06-26T14:36:23.718Z,35.70
2019-06-26T14:38:51.742Z,35.70
2019-06-26T14:41:19.758Z,35.70
2019-06-26T14:43:47.827Z,35.60
2019-06-26T14:46:15.992Z,35.50
2019-06-26T14:48:44.134Z,35.60
2019-06-26T14:51:12.207Z,35.80
2019-06-26T14:53:40.319Z,35.80
2019-06-26T14:56:08.366Z,35.50
2019-06-26T14:58:37.238Z,35.20
2019-06-26T15:01:05.598Z,35.20
2019-06-26T15:03:34.451Z,35.40
2019-06-26T15:06:15.762Z,35.40
2019-06-26T15:08:30.690Z,35.60
2019-06-26T15:10:58.719Z,35.50
2019-06-26T15:13:27.634Z,35.40
2019-06-26T15:15:55.802Z,35.40
2019-06-26T15:18:23.895Z,35.70
2019-06-26T15:20:51.949Z,35.80
2019-06-26T15:23:20.001Z,35.70
2019-06-26T15:25:48.826Z,35.90
2019-06-26T15:28:16.887Z,35.90
2019-06-26T15:30:44.959Z,35.80
2019-06-26T15:33:13.076Z,35.80
2019-06-26T15:35:42.015Z,35.60
2019-06-26T15:38:10.016Z,35.60
2019-06-26T15:40:38.127Z,35.70
2019-06-26T15:43:06.203Z,35.70
2019-06-26T15:45:34.283Z,35.70
2019-06-26T15:48:02.323Z,35.70
2019-06-26T15:50:31.125Z,35.50
2019-06-26T15:52:59.248Z,35.50
2019-06-26T15:55:27.200Z,35.50
2019-06-26T15:57:55.241Z,35.40
2019-06-26T16:00:23.405Z,35.40
2019-06-26T16:02:51.401Z,35.30
2019-06-26T16:05:19.443Z,35.30
2019-06-26T16:07:47.489Z,35.30
2019-06-26T16:10:16.344Z,35.10
2019-06-26T16:12:44.382Z,35.10
2019-06-26T16:15:13.256Z,35.00
2019-06-26T16:17:47.877Z,35.00
2019-06-26T16:20:16.007Z,34.90
2019-06-26T16:22:44.001Z,34.90
2019-06-26T16:25:12.818Z,34.90
2019-06-26T16:27:40.910Z,34.90
2019-06-26T16:30:08.948Z,34.90
2019-06-26T16:32:37.025Z,34.80
2019-06-26T16:35:05.123Z,34.80
2019-06-26T16:37:33.165Z,34.70
2019-06-26T16:40:01.244Z,34.70
2019-06-26T16:42:29.277Z,34.50
2019-06-26T16:44:57.386Z,34.40
2019-06-26T16:47:26.269Z,34.10
2019-06-26T16:49:54.384Z,34.00
2019-06-26T16:52:22.529Z,33.90
2019-06-26T16:54:50.565Z,33.70
2019-06-26T16:57:19.516Z,33.50
2019-06-26T16:59:47.650Z,33.50
2019-06-26T17:02:15.721Z,33.40
2019-06-26T17:04:44.606Z,33.40
2019-06-26T17:07:12.672Z,33.30
2019-06-26T17:09:44.244Z,33.30
2019-06-26T17:12:08.913Z,33.20
2019-06-26T17:14:36.985Z,33.20
2019-06-26T17:17:05.061Z,33.10
2019-06-26T17:19:33.150Z,33.00
2019-06-26T17:22:01.271Z,32.90
2019-06-26T17:24:29.385Z,32.90
2019-06-26T17:26:59.465Z,32.90
2019-06-26T17:29:26.336Z,32.80
2019-06-26T17:31:54.378Z,32.80
2019-06-26T17:34:22.430Z,32.90
2019-06-26T17:36:50.518Z,32.80
2019-06-26T17:39:18.651Z,32.70
2019-06-26T17:41:46.685Z,32.60
2019-06-26T17:44:14.776Z,32.50
2019-06-26T17:46:42.878Z,32.40
2019-06-26T17:49:10.985Z,32.40
2019-06-26T17:51:39.991Z,32.30
2019-06-26T17:54:08.071Z,32.30
2019-06-26T17:56:36.172Z,32.30
2019-06-26T17:59:04.259Z,32.20
2019-06-26T18:01:32.266Z,32.20
2019-06-26T18:04:01.076Z,32.10
2019-06-26T18:06:29.150Z,32.10
2019-06-26T18:08:57.219Z,32.00
2019-06-26T18:11:25.281Z,31.90
2019-06-26T18:13:53.326Z,31.90
2019-06-26T18:16:22.138Z,31.70
2019-06-26T18:18:50.234Z,31.70
2019-06-26T18:21:18.377Z,31.70
2019-06-26T18:23:46.483Z,31.60
2019-06-26T18:26:14.555Z,31.50
2019-06-26T18:28:42.814Z,31.50
2019-06-26T18:31:10.849Z,31.50
2019-06-26T18:33:39.682Z,31.30
2019-06-26T18:36:07.712Z,31.30
2019-06-26T18:38:35.818Z,31.20
2019-06-26T18:41:03.856Z,31.20
2019-06-26T18:43:31.973Z,31.20
2019-06-26T18:46:00.100Z,31.00
2019-06-26T18:48:28.997Z,30.80
2019-06-26T18:50:57.110Z,30.80
2019-06-26T18:53:25.453Z,30.70
2019-06-26T18:55:53.536Z,30.70
2019-06-26T18:58:21.588Z,30.60
2019-06-26T19:00:49.617Z,30.50
2019-06-26T19:03:18.265Z,30.40
2019-06-26T19:05:46.398Z,30.30
2019-06-26T19:08:14.501Z,30.20
2019-06-26T19:10:43.398Z,30.00
2019-06-26T19:13:11.455Z,30.00
2019-06-26T19:15:39.477Z,29.90
2019-06-26T19:18:07.584Z,29.70
2019-06-26T19:20:35.715Z,29.50
2019-06-26T19:23:03.884Z,29.40
2019-06-26T19:25:31.953Z,29.30
2019-06-26T19:28:00.102Z,29.20
2019-06-26T19:30:28.381Z,29.10
2019-06-26T19:32:56.429Z,29.00
2019-06-26T19:35:24.516Z,29.00
2019-06-26T19:37:52.552Z,28.80
2019-06-26T19:40:23.936Z,28.80
2019-06-26T19:42:49.540Z,28.70
2019-06-26T19:45:17.578Z,28.80
2019-06-26T19:47:46.489Z,29.20
2019-06-26T19:50:14.696Z,29.10
2019-06-26T19:52:43.050Z,29.30
2019-06-26T19:55:11.081Z,29.40
2019-06-26T19:57:39.896Z,29.30
2019-06-26T20:00:08.919Z,29.30
2019-06-26T20:02:36.968Z,29.20
2019-06-26T20:05:05.047Z,29.00
2019-06-26T20:07:33.190Z,29.00
2019-06-26T20:10:02.081Z,28.70
2019-06-26T20:12:30.099Z,28.20
2019-06-26T20:14:58.151Z,28.20
2019-06-26T20:17:26.158Z,28.10
2019-06-26T20:19:54.257Z,28.10
2019-06-26T20:22:22.426Z,28.10
2019-06-26T20:24:50.501Z,28.20
2019-06-26T20:27:18.541Z,28.20
2019-06-26T20:29:46.673Z,28.30
2019-06-26T20:32:14.750Z,28.30
2019-06-26T20:34:42.756Z,28.30
2019-06-26T20:37:10.832Z,28.30
2019-06-26T20:39:38.932Z,28.40
2019-06-26T20:42:06.989Z,28.40
2019-06-26T20:44:35.177Z,28.40
2019-06-26T20:47:03.239Z,28.30
2019-06-26T20:49:31.277Z,28.20
2019-06-26T20:51:59.409Z,28.20
2019-06-26T20:54:27.499Z,28.20
2019-06-26T20:56:55.620Z,28.10
2019-06-26T20:59:23.690Z,27.90
2019-06-26T21:01:51.827Z,27.70
2019-06-26T21:04:19.892Z,27.60
2019-06-26T21:06:47.967Z,27.60
2019-06-26T21:09:15.977Z,27.60
2019-06-26T21:11:44.112Z,27.50
2019-06-26T21:14:12.172Z,27.30
2019-06-26T21:16:40.205Z,27.10
2019-06-26T21:19:08.297Z,26.90
2019-06-26T21:21:36.433Z,26.80
2019-06-26T21:24:04.629Z,26.90
2019-06-26T21:26:32.540Z,27.10
2019-06-26T21:29:00.959Z,27.10
2019-06-26T21:31:29.443Z,27.20
2019-06-26T21:33:57.538Z,27.10
2019-06-26T21:36:26.305Z,27.20
2019-06-26T21:38:55.412Z,27.20
2019-06-26T21:41:23.453Z,27.20
2019-06-26T21:43:52.221Z,27.20
2019-06-26T21:46:20.353Z,27.20
2019-06-26T21:48:48.415Z,27.30
2019-06-26T21:51:16.457Z,27.20
2019-06-26T21:53:45.748Z,27.00
2019-06-26T21:56:13.825Z,26.90
2019-06-26T21:58:41.891Z,27.00
2019-06-26T22:01:10.859Z,27.00
2019-06-26T22:03:38.867Z,27.00
2019-06-26T22:06:06.931Z,26.90
2019-06-26T22:08:35.129Z,26.80
2019-06-26T22:11:03.185Z,26.80
2019-06-26T22:13:31.966Z,26.70
2019-06-26T22:16:00.043Z,26.70
2019-06-26T22:18:28.168Z,26.70
2019-06-26T22:20:56.265Z,26.70
2019-06-26T22:23:24.350Z,26.70
2019-06-26T22:25:52.430Z,26.60
2019-06-26T22:28:20.464Z,26.50
2019-06-26T22:30:49.387Z,26.40
2019-06-26T22:33:17.437Z,26.40
2019-06-26T22:35:45.477Z,26.40
2019-06-26T22:38:13.504Z,26.40
2019-06-26T22:40:41.560Z,26.30
2019-06-26T22:43:09.634Z,26.30
2019-06-26T22:45:37.793Z,26.30
2019-06-26T22:48:05.830Z,26.20
2019-06-26T22:50:33.869Z,26.00
2019-06-26T22:53:02.105Z,26.00
2019-06-26T22:55:30.194Z,26.10
2019-06-26T22:57:58.252Z,26.00
2019-06-26T23:00:26.291Z,25.90
2019-06-26T23:02:54.390Z,25.90
2019-06-26T23:05:22.465Z,25.80
2019-06-26T23:07:50.547Z,25.90
2019-06-26T23:10:18.599Z,25.90
2019-06-26T23:12:46.727Z,25.90
2019-06-26T23:15:14.718Z,25.70
2019-06-26T23:17:43.523Z,25.20
2019-06-26T23:20:11.611Z,25.20
2019-06-26T23:22:39.687Z,25.30
2019-06-26T23:25:07.749Z,25.30
2019-06-26T23:27:36.525Z,25.50
2019-06-26T23:30:04.622Z,25.40
2019-06-26T23:32:32.673Z,25.40
2019-06-26T23:35:00.711Z,25.40
2019-06-26T23:37:28.761Z,25.30
2019-06-26T23:39:56.810Z,25.40
2019-06-26T23:42:24.961Z,25.40
2019-06-26T23:44:53.031Z,25.30
2019-06-26T23:47:21.093Z,25.30
2019-06-26T23:49:49.865Z,25.20
2019-06-26T23:52:18.777Z,25.20
2019-06-26T23:54:47.582Z,25.30
2019-06-26T23:57:15.626Z,25.20
2019-06-26T23:59:43.666Z,25.30
